Faktúry za rok 2020

január február marec apríl máj jún júl august september október november december

Por. č. Dátum doručenia Názov a adresa dodávateľa IČO Popis plnenia Suma bez DPH Suma s DPH Č. OBJ
301 2.3.20 Drucker, s.r.o. 44925417 servis 48,00 57,60 20200120
302 2.3.20 Duslo, a.s. 35826487 tesnenie netesnosti 2695,00 2695,00 20200071
303 2.3.20 ABB, s.r.o. 31389325 servis 918,00 1101,60 20200076
304 2.3.20 Sloving, spol. s.r.o. 17321069 prehliadka kotla 665,00 798,00 20200105
305 2.3.20 KRONOSPAN, s.r.o. 36059323 prevádzka vlečky 50,00 60,00  
306 2.3.20 Altis Slovakia, s.r.o. 36419168 tesniaca hmota 468,45 562,14 20200107
307 3.3.20 KV- Security, s.r.o. 46019669 strážna služba 10300,00 12360,96 20200003
308 3.3.20 Peron slovakia, s.r.o. 45347352 pranie 64,70 77,64 20200005
309 4.3.20 Ulianko a Partners, s.r.o. 36856517 služby 1500,00 1800,00 20200062
310 4.3.20 D.K.C., s.r.o. 31571727 nafta 954,00 1144,80 20200042
311 4.3.20 NCH SLOVAKIA s.r.o. 34096043 chémia 475,80 570,96 20200118
312 4.3.20 Stredosl.vod.prev.spol.,a.s. 36644030 upomienka 2,50 2,50  
313 4.6.20 OSKO, a.s. 36044717 elektromateriál 22,50 27,00 20200126
314 5.3.20 Orange Slovensko 35697270 služby 32,00 38,40  
315 5.3.20 Orange Slovensko 35697270 služby 813,33 970,52  
316 5.3.20 Duslo, a.s. 35826487 služba 916,00 916,00 20200119
317 5.3.20 Stredosl.vod.prev.spol.,a.s. 36644030 voda 445,57 534,68 20200048
318 5.3.20 MARLUS Group, s.r.o. 31411304 oprava 26,67 32,00 20200039
319 5.3.20 Fittich s.r.o. 46849891 kontrola EPS 70,00 84,00 20200010
320 5.3.20 STEFE Zvolen s.r.o. 31612300 služby 11250,00 13500,00  
321 5.3.20 EUROFINS BEL/NOVAMANN s.r.o. 31329209 služby 96,50 115,80 20200045
322 5.3.20 ENERGYCO, s.r.o. 36194824 vyúčtovanie prijatého preddavku 7802580 7802580 20200133
323 6.3.20 AutoKODUS s.r.o. 36530751 servis 86,26 103,51 20200137
324 6.3.20 Energodata, spol. s.r.o. 30223806 nájomné 1470,00 1764,00 20200102
325 6.3.20 Drucker, s.r.o. 44925417 tlačiareň 351,00 421,20 20200121
326 6.3.20 VSSG Biomasa, s.r.o 44321708 biomasa 113488,05 136185,66 20200014
327 6.3.20 Marius Pedersen 34115901 služby 21,39 25,67 20200047
328 6.3.20 Stredoslovenská distribučná, a.s 36442151 služby 570,96 685,15  
329 6.3.20 ProCare, a.s. 35890568 PZS 539,40 582,55 20200007
330 9.3.20 OMV, s.r.o. 604381 tankovanie 453,36 544,03  
331 9.3.20 Marius Pedersen 34115901 služba 371,10 438,80 20200047
332 9.3.20 Linde Gas k.s 31373861 nájomné plyny 439,06 526,87 20200065
333 9.3.20 MZ-Beta, a.s. 36437786 biomasa 1993,82 2392,58 20200011
334 9.3.20 SPIN - SK s.r.o. 48118621 nájom 66,39 79,67 20200029
335 9.3.20 ENERGOTEL, a.s. 35785217 služba 400,00 480,00 20200058
336 9.3.20 Slovenský vodohosp. Pod, š.p.. 3602204703 voda 7526,88 9032,26 20200052
337 9.3.20 Slovak Telekom, a.s. 35763469 služba 305,81 366,97  
338 9.3.20 MP Profit PB 50068849 služba 1750,00 2100,00 20200146
339 9.3.20 MP Profit PB 50068849 služba 1750,00 2100,00 20200097
340 10.3.20 OKTE, a.s. 45687862 systémové služby 13356,69 16028,03 20200103
341 10.3.20 OKTE, a.s. 45687862 prevádzkovanie systému 44070,47 52884,56 20200103
342 11.3.20 Slovenský vodohosp. Pod, š.p.. 3602204703 hydroenergetický potenciál 1734,35 2081,22 20200040
343 11.3.20 Akdémia Plus s.r.o. 36640514 seminár 140,00 168,00  
344 11.3.20 PRO - FOREST Rožňava , s.r.o. 31722831 biomasa 121287,75 145545,30 20200012
345 11.3.20 TECH-LIT SK s.r.o. 50006193 krém na ruky 672,00 806,40 20200093
346 11.3.20 Lyreco CE, SE 35958120 hgienické potreby 434,88 521,86 20200140
347 11.3.20 Auxilien, a.s. 45601437 služba 3056,70 3056,70 20200100
348 11.3.20 Auxilien, a.s. 45601437 služba 11863,65 14236,38 20200099
349 11.3.20 SEP, a.s. 36442160 služba 4550,95 5461,14 20200104
350 11.3.20 Auxilien, a.s. 45601437 služba 3642,65 3642,65 20200101
351 11.3.20 OKTE, a.s. 45687862 odchýlka  491,50 589,80  
352 11.3.20 OKTE, a.s. 45687862 zúčtovanie odchýlky 90,48 108,58  
353 11.3.20 Grant Thornton Advisory s..ro. 36739715 poradenské služby 10000,00 12000,00 20200066
354 11.3.20 Grant Thornton Advisory s..ro. 36739715 poradenské služby 5000,00 6000,00 20200066
355 12.3.20 Energie2, a.s. 46113177 plyn 33049,41 39630,88  
356 12.3.20 Elgas , s.r.o 36314242 úroky z omeškania 33,77 33,77  
357 12.3.20 Stredoslovenská distribučná, a.s 36442151 Fa VVN 15205,04 18246,05  
358 12.3.20 Stredoslovenská distribučná, a.s 36442151 súhrnná VVN 23,08 27,70  
359 12.3.20 Stredoslovenská distribučná, a.s 36442151 preddavky VN 4058,00 4058,00  
360 12.3.20 Stredoslovenská distribučná, a.s 36442151 preddavky VVN 243,00 243,00  
361 12.3.20 Stredoslovenská distribučná, a.s 36442151 súhrnná VN 3390,24 678,05  
362 12.3.20 OKTE, a.s. 45687862 záloha odchýlka 363,17 363,17  
363 12.3.20 OKTE, a.s. 45687862 DBS prevádzkovanie systému -10104,34 -12125,21  
364 13.3.20 Up Slovensko 31396674 lístky 7140,19 7154,19  
365 13.3.20 Up Slovensko 31396674 lístky 2294,90 2299,40  
366 16.3.20 e.mcc energy , s.r.o. 43981631 služby 90287,00 108344,40 20200109
367 16.3.20 Hydrex, s.r.o. 31633072 oprava 3246,93 3896,32  
368 16.3.20 TSA Group spol. s.r.o. 45921261 oprava kamerového systému 740,00 888,00 20200075
369 16.3.20 Bc. Judita Magdičová 46931210 služba 320,00 320,00 20200006
370 16.3.20 Železnice SR 31364501 elektrina 8,35 10,02  
371 16.3.20 Elevátor servis, s.r.o 36045641 servis 124,00 124,00 20200004
372 16.3.20 NCH SLOVAKIA s.r.o. 34096043 chémia 329,30 395,16 20200135
373 16.3.20 Praktikpump 36647861 oprava 590,00 708,00 20200091
374 16.3.20 AUTO SLOVÁK s.r.o. 36033693 oprava 588,94 706,73 20200116
375 16.3.20 AUTO SLOVÁK s.r.o. 36033693 oprava 2076,01 2491,21 20200159
376 16.3.20 Bormis s.r.o. 36747378 ochranné prac. prostriedky 236,42 283,70 20200112
377 16.3.20 MARLUS Group, s.r.o. 31411304 servis 72,50 87,00 20200039
378 17.3.20 INTERFLON Czech, s.r.o 43002056 olej 475,00 475,00 20200139
379 18.3.20 Enbra Slovakia, s.r.o. 31624189 vodomery 201,60 241,92 20200136
380 18.3.20 RUžIČKA AND PARTNERS s.r.o. 36863360 právne služby 2500,00 3000,00 20200150
381 18.3.20 TERRASTROJ spol. s.r.o. 643581 olej hydraulický 115,00 138,00 20200158
382 18.3.20 SEPS, a.s. 35829141 zmluvná pokuta 5,59 5,59  
383 19.3.20 Energodata, spol. s.r.o. 30223806 nájomné 17170,80 20604,96 20200102
384 20.3.20 Euroline computer, s.r.o. 36395994 záloha na notebook 882,78 882,78 20200165
385 20.3.20 BRENNTAG SLOVAKIA s.r.o. 31336884 záloha kyselina soľná technická 5670,00 5670,00 20200151
386 20.3.20 MIKAPO, s.r.o. 44721277 minerálna voda 240,00 288,00 20200142
387 23.3.20 OMV, s.r.o. 604381 tankovanie 783,74 937,99  
388 23.3.20 PRO - FOREST Rožňava , s.r.o. 31722831 biomasa 92052,38 110462,85 20200012
389 23.3.20 VSSG Biomasa, s.r.o 44321708 biomasa 67788,69 81346,43 20200014
390 23.3.20 D.K.C., s.r.o. 31571727 nafta 1841,01 2209,00 20200042
391 23.3.20 MaM plus, s.r.o. 36311855 služby 2500,00 3000,00 20200125
392 23.3.20 BVT systems s.r.o. 47699230 odborná prehliadka 1330,00 1596,00 20200114
393 23.3.20 BVT systems s.r.o. 47699230 materiál 330,00 396,00 20200090
394 23.3.20 MERTECH spol. s r.o. 31629024 servis 390,00 468,00 20200009
395 23.3.20 MERTECH spol. s r.o. 31629024 servis 309,00 370,80 20200009
396 23.3.20 MOBILLINE s.r.o 43889247 rúško 625,00 750,00  
397 24.3.20 Chiva SK , spol s.r.o. 46472762 materiál 218,30 261,96 20200148
398 24.3.20 MASTER 51280973 elektrody 231,89 278,27 20200154
399 24.3.20 Bormis s.r.o. 36747378 ochranné prac. prostriedky 319,58 383,50 20200144
400 25.3.20 OKTE, a.s. 45687862 záloha odchýlka 221,66 221,66  
401 26.3.20 Drucker, s.r.o. 44925417 tonery 926,50 1111,80 20200143
402 26.3.20 Praktikpump 36647861 ložisko 42,00 50,40 20200156
403 26.3.20 MZ-Beta, a.s. 36437786 biomasa 4512,93 5415,52  
404 26.3.20 Marius Pedersen 34115901 služby 189,66 224,76  
405 26.3.20 PPA inžiniering, s.r.o. 31376045 údržba 3520,00 4224,00  
406 26.3.20 Ex  Tempore 47971835 dohľad nad odkaliskom r. 2019 1600,00 1600,00 20200168
407 30.3.20 Praktikpump 36647861 oprava 590,00 708,00  
408 30.3.20 Fittich s.r.o. 46849891 kontrola EPS 50,00 60,00  
409 30.3.20 Pokorný, spol. s.r.o., ČR 46983864 materiál 678,20 678,20 20200149
410 31.3.20 Beata Dolincova - 34625364 služby 150,00 150,00  
411 31.3.20 TECH-LIT SK s.r.o. 50006193 ochranné prostriedky hygienické 2710,00 3252,00 20200153
412 31.3.20 Bormis s.r.o. 36747378 OOPP 175,57 210,68 20200144
413 31.3.20 OKTE, a.s. 45687862 záloha systémové služby 4808,41 4808,41 20200103
414 31.3.20 OKTE, a.s. 45687862 záloha systémové služby 4808,41 4808,41 20200103
415 31.3.20 OKTE, a.s. 45687862 záloha systémové služby 3205,61 3205,61 20200103
416 31.3.20 OKTE, a.s. 45687862 záloha prevádzkovanie systému 18283,57 18283,57 20200103
417 31.3.20 OKTE, a.s. 45687862 záloha prevádzkovanie systému 18283,57 18283,57 20200103
418 31.3.20 OKTE, a.s. 45687862 záloha prevádzkovanie systému 12189,05 12189,05 20200103